Quentin, PA (17083)

10:35 AM EST on December 09, 2016 (GMT -0500)
Cornwall W3LWH | | Change Station

Elev 540 ft 40.29 °N, 76.42 °W | Updated 27 minutes ago

Partly Cloudy
Partly Cloudy
32.5 °F
Feels Like 28 °F
N
5.0
Wind Variable Wind from West
Gusts 20.0 mph

Today
High -- | Low -- °F
--% Chance of Precip.
Yesterday
High -- | Low -- °F
Precip. -- in
Pressure 30.26 in
Visibility 10.0 miles
Clouds Mostly Cloudy 3600 ft
Windchill 28 °F
Dew Point 21 °F
Humidity 64%
Rainfall 0.00 in
Snow Depth Not available.
7:17 AM 4:39 PM
Waxing Gibbous, 75% visible
METAR KMUI 091458Z AUTO 28014G25KT 10SM BKN036 00/M08 A3023 RMK AO2 SLP245 T00041083 52017 $
Pressure 30.26 in
Visibility 10.0 miles
Clouds Mostly Cloudy 3600 ft
Windchill 28 °F
Dew Point 21 °F
Humidity 64%
Rainfall 0.00 in
Snow Depth Not available.
7:17 AM 4:39 PM
Waxing Gibbous, 75% visible
METAR KMUI 091458Z AUTO 28014G25KT 10SM BKN036 00/M08 A3023 RMK AO2 SLP245 T00041083 52017 $

10-Day Weather Forecast

Almanac

Astronomy

Dec. 09, 2016 Rise Set
Actual Time
Civil Twilight
Nautical Twilight
Astronomical Twilight
Moon
Length of Visible Light
Length of Day
Tomorrow will be .
, % of the Moon is Illuminated

Today's Extremes

State Highs State Lows

Community

WunderPhotos

Upload Photos

1,956,432 photos uploaded!

WunderBlog® & News

Nearby

Air Quality

  Air Quality AQ Index Pollutant
Not available.

Snow Depth

Station Depth Elevation

Earthquake Activity

City Distance Mag. Time & Date
Minimum magnitude displayed is 2.5.

Coastal Water Temperatures

Place Temperature

Stations

Nearby Weather Stations

Station Location Temp. Windchill Dew Point Humidity Wind Precip. Elev Updated Type
                   

Watches & Warnings

There are currently no watches in effect.